createdAt,value
2023-02-16T00:02:02.313Z,98.00
2023-02-16T00:06:05.655Z,98.20
2023-02-16T00:10:07.780Z,97.80
2023-02-16T00:14:11.791Z,97.60
2023-02-16T00:18:17.908Z,97.70
2023-02-16T00:22:19.863Z,97.50
2023-02-16T00:26:26.013Z,97.10
2023-02-16T00:30:29.133Z,96.90
2023-02-16T00:34:34.143Z,97.00
2023-02-16T00:38:36.249Z,96.90
2023-02-16T00:42:38.788Z,97.40
2023-02-16T00:46:45.087Z,96.70
2023-02-16T00:50:47.201Z,96.90
2023-02-16T00:54:52.505Z,96.90
2023-02-16T00:58:54.450Z,96.90
2023-02-16T01:03:04.921Z,97.10
2023-02-16T01:07:31.264Z,97.10
2023-02-16T01:11:33.326Z,97.20
2023-02-16T01:15:38.140Z,97.00
2023-02-16T01:19:40.107Z,97.40
2023-02-16T01:23:42.054Z,97.80
2023-02-16T01:27:45.045Z,98.40
2023-02-16T01:31:49.973Z,98.20
2023-02-16T01:35:53.704Z,97.40
2023-02-16T01:39:55.639Z,97.40
2023-02-16T01:44:11.354Z,97.10
2023-02-16T01:48:25.048Z,96.70
2023-02-16T01:52:44.668Z,96.50
2023-02-16T01:57:16.299Z,96.60
2023-02-16T02:01:41.033Z,96.40
2023-02-16T02:05:43.175Z,96.50
2023-02-16T02:09:52.177Z,96.40
2023-02-16T02:14:08.661Z,96.60
2023-02-16T02:18:10.734Z,97.00
2023-02-16T02:22:46.555Z,96.70
2023-02-16T02:26:54.142Z,96.40
2023-02-16T02:31:08.872Z,96.10
2023-02-16T02:35:39.018Z,96.40
2023-02-16T02:39:50.470Z,97.00
2023-02-16T02:44:05.302Z,96.80
2023-02-16T02:48:07.242Z,96.50
2023-02-16T02:52:10.782Z,96.60
2023-02-16T02:56:34.229Z,96.80
2023-02-16T03:00:51.658Z,96.50
2023-02-16T03:04:57.295Z,96.80
2023-02-16T03:09:11.489Z,97.10
2023-02-16T03:13:27.281Z,97.10
2023-02-16T03:17:55.209Z,97.10
2023-02-16T03:22:15.955Z,97.00
2023-02-16T03:26:37.708Z,96.80
2023-02-16T03:30:40.056Z,96.60
2023-02-16T03:34:42.284Z,97.00
2023-02-16T03:38:44.117Z,97.20
2023-02-16T03:42:51.775Z,97.10
2023-02-16T03:46:53.632Z,97.00
2023-02-16T03:50:55.489Z,96.90
2023-02-16T03:54:57.322Z,96.90
2023-02-16T03:58:59.175Z,97.10
2023-02-16T04:03:01.437Z,96.90
2023-02-16T04:07:03.216Z,96.70
2023-02-16T04:11:27.795Z,96.40
2023-02-16T04:15:31.529Z,96.00
2023-02-16T04:19:33.257Z,95.90
2023-02-16T04:23:35.063Z,95.70
2023-02-16T04:27:38.333Z,95.70
2023-02-16T04:31:40.142Z,95.40
2023-02-16T04:35:42.015Z,95.40
2023-02-16T04:39:43.789Z,96.20
2023-02-16T04:43:45.616Z,96.10
2023-02-16T04:47:48.041Z,95.90
2023-02-16T04:51:49.871Z,96.50
2023-02-16T04:55:51.705Z,96.50
2023-02-16T04:59:53.583Z,96.30
2023-02-16T05:03:55.689Z,96.30
2023-02-16T05:07:57.509Z,96.30
2023-02-16T05:12:18.161Z,96.10
2023-02-16T05:16:24.481Z,96.20
2023-02-16T05:20:46.370Z,96.20
2023-02-16T05:24:48.993Z,96.30
2023-02-16T05:28:50.801Z,96.00
2023-02-16T05:32:52.549Z,95.80
2023-02-16T05:36:55.202Z,95.90
2023-02-16T05:40:58.692Z,95.90
2023-02-16T05:45:00.711Z,96.00
2023-02-16T05:49:03.449Z,95.90
2023-02-16T05:53:05.271Z,95.80
2023-02-16T05:57:07.151Z,95.50
2023-02-16T06:01:08.988Z,95.20
2023-02-16T06:05:10.742Z,94.90
2023-02-16T06:09:12.601Z,95.10
2023-02-16T06:13:14.393Z,95.10
2023-02-16T06:17:16.227Z,95.20
2023-02-16T06:21:18.008Z,95.60
2023-02-16T06:25:20.286Z,95.90
2023-02-16T06:29:22.119Z,95.80
2023-02-16T06:33:23.894Z,95.80
2023-02-16T06:37:25.721Z,95.90
2023-02-16T06:41:39.855Z,95.40
2023-02-16T06:45:41.836Z,95.80
2023-02-16T06:49:43.646Z,95.80
2023-02-16T06:53:45.920Z,95.60
2023-02-16T06:57:47.701Z,95.30
2023-02-16T07:01:49.546Z,95.80
2023-02-16T07:05:51.348Z,96.20
2023-02-16T07:09:53.279Z,96.00
2023-02-16T07:13:55.357Z,95.90
2023-02-16T07:17:57.196Z,95.80
2023-02-16T07:22:02.895Z,95.70
2023-02-16T07:26:04.852Z,95.50
2023-02-16T07:30:08.884Z,95.70
2023-02-16T07:34:10.734Z,95.50
2023-02-16T07:38:13.231Z,95.30
2023-02-16T07:42:14.976Z,95.70
2023-02-16T07:46:21.704Z,95.90
2023-02-16T07:50:23.539Z,95.40
2023-02-16T07:54:25.329Z,95.60
2023-02-16T07:58:27.278Z,95.80
2023-02-16T08:02:29.378Z,95.60
2023-02-16T08:06:31.278Z,95.80
2023-02-16T08:10:33.046Z,95.80
2023-02-16T08:14:34.931Z,95.70
2023-02-16T08:18:37.460Z,95.40
2023-02-16T08:22:39.245Z,95.30
2023-02-16T08:26:43.206Z,95.40
2023-02-16T08:30:45.035Z,95.60
2023-02-16T08:34:46.916Z,95.50
2023-02-16T08:38:50.836Z,95.30
2023-02-16T08:42:52.863Z,95.30
2023-02-16T08:46:56.659Z,95.30
2023-02-16T08:50:58.437Z,95.30
2023-02-16T08:55:00.244Z,95.30
2023-02-16T08:59:02.655Z,95.40
2023-02-16T09:03:06.964Z,95.50
2023-02-16T09:07:08.735Z,95.60
2023-02-16T09:11:16.166Z,95.80
2023-02-16T09:15:18.070Z,96.00
2023-02-16T09:19:21.190Z,96.10
2023-02-16T09:23:23.867Z,96.10
2023-02-16T09:27:25.986Z,96.50
2023-02-16T09:31:31.453Z,96.60
2023-02-16T09:35:33.541Z,96.90
2023-02-16T09:39:35.295Z,97.00
2023-02-16T09:43:36.995Z,96.90
2023-02-16T09:47:42.941Z,97.50
2023-02-16T09:51:44.930Z,97.60
2023-02-16T09:55:59.604Z,97.50
2023-02-16T10:00:18.634Z,97.60
2023-02-16T10:04:26.892Z,97.80
2023-02-16T10:08:37.252Z,97.90
2023-02-16T10:12:58.425Z,98.10
2023-02-16T10:17:20.520Z,98.20
2023-02-16T10:21:27.529Z,98.40
2023-02-16T10:25:47.461Z,98.50
2023-02-16T10:29:49.247Z,98.70
2023-02-16T10:34:15.090Z,99.70
2023-02-16T10:39:04.433Z,99.90
2023-02-16T10:43:30.733Z,99.90
2023-02-16T10:47:41.774Z,99.90
2023-02-16T10:51:49.300Z,99.90
2023-02-16T10:55:51.063Z,99.90
2023-02-16T10:59:54.652Z,99.90
2023-02-16T11:03:56.933Z,99.90
2023-02-16T11:08:03.224Z,99.90
2023-02-16T11:12:38.823Z,99.90
2023-02-16T11:16:40.643Z,99.90
2023-02-16T11:20:42.533Z,99.90
2023-02-16T11:24:44.352Z,99.90
2023-02-16T11:28:47.886Z,99.90
2023-02-16T11:32:52.876Z,99.90
2023-02-16T11:37:07.167Z,99.90
2023-02-16T11:41:09.032Z,99.90
2023-02-16T11:45:33.714Z,99.90
2023-02-16T11:49:39.667Z,99.90
2023-02-16T11:53:43.613Z,99.90
2023-02-16T11:57:45.404Z,99.90
2023-02-16T12:02:09.147Z,99.90
2023-02-16T12:06:52.749Z,99.90
2023-02-16T12:11:18.886Z,99.90
2023-02-16T12:15:38.066Z,99.90
2023-02-16T12:19:49.052Z,99.90
2023-02-16T12:24:13.899Z,99.90
2023-02-16T12:28:32.348Z,99.90
2023-02-16T12:32:46.914Z,99.70
2023-02-16T12:37:05.695Z,99.90
2023-02-16T12:41:44.198Z,99.90
2023-02-16T12:45:48.065Z,99.30
2023-02-16T12:49:52.873Z,99.70
2023-02-16T12:54:17.427Z,99.10
2023-02-16T12:58:30.040Z,98.90
2023-02-16T13:02:40.292Z,98.80
2023-02-16T13:07:06.263Z,98.00
2023-02-16T13:11:19.157Z,97.90
2023-02-16T13:15:36.486Z,97.80
2023-02-16T13:19:38.315Z,97.10
2023-02-16T13:24:07.274Z,97.20
2023-02-16T13:28:32.931Z,96.40
2023-02-16T13:32:38.605Z,96.40
2023-02-16T13:36:58.980Z,96.20
2023-02-16T13:41:13.047Z,96.40
2023-02-16T13:45:20.317Z,96.00
2023-02-16T13:49:42.319Z,95.60
2023-02-16T13:53:59.166Z,95.10
2023-02-16T13:58:28.472Z,94.90
2023-02-16T14:02:56.000Z,95.00
2023-02-16T14:07:03.711Z,94.50
2023-02-16T14:11:08.592Z,94.90
2023-02-16T14:15:19.605Z,94.50
2023-02-16T14:19:26.544Z,94.30
2023-02-16T14:23:34.496Z,94.60
2023-02-16T14:27:56.444Z,93.80
2023-02-16T14:32:28.361Z,93.90
2023-02-16T14:36:30.858Z,93.60
2023-02-16T14:40:35.932Z,93.00
2023-02-16T14:45:10.041Z,93.00
2023-02-16T14:49:24.054Z,92.30
2023-02-16T14:53:47.990Z,92.40
2023-02-16T14:57:58.198Z,92.30
2023-02-16T15:02:00.044Z,92.20
2023-02-16T15:06:06.285Z,92.10
2023-02-16T15:10:14.380Z,92.30
2023-02-16T15:14:16.386Z,91.60
2023-02-16T15:18:21.818Z,92.00
2023-02-16T15:22:26.053Z,91.70
2023-02-16T15:26:34.379Z,91.70
2023-02-16T15:30:46.948Z,91.80
2023-02-16T15:34:50.213Z,92.00
2023-02-16T15:39:00.168Z,91.90
2023-02-16T15:43:32.869Z,92.20
2023-02-16T15:47:35.056Z,92.20
2023-02-16T15:51:38.290Z,92.30
2023-02-16T15:55:47.857Z,92.10
2023-02-16T15:59:54.146Z,92.20
2023-02-16T16:03:56.197Z,92.30
2023-02-16T16:07:59.067Z,92.70
2023-02-16T16:12:04.460Z,92.90
2023-02-16T16:16:09.684Z,93.20
2023-02-16T16:20:26.209Z,93.50
2023-02-16T16:24:38.957Z,94.00
2023-02-16T16:28:41.112Z,93.80
2023-02-16T16:32:43.220Z,94.10
2023-02-16T16:36:54.623Z,94.50
2023-02-16T16:40:59.197Z,94.70
2023-02-16T16:45:06.993Z,94.90
2023-02-16T16:49:15.721Z,95.00
2023-02-16T16:53:29.734Z,95.10
2023-02-16T16:57:31.495Z,95.10
2023-02-16T17:01:33.791Z,95.20
2023-02-16T17:05:38.426Z,95.30
2023-02-16T17:09:40.570Z,95.50
2023-02-16T17:13:42.298Z,95.70
2023-02-16T17:17:44.215Z,96.00
2023-02-16T17:21:47.182Z,95.90
2023-02-16T17:25:50.157Z,95.90
2023-02-16T17:29:51.928Z,95.90
2023-02-16T17:33:53.819Z,96.00
2023-02-16T17:37:55.568Z,96.10
2023-02-16T17:41:57.948Z,96.10
2023-02-16T17:46:04.603Z,96.10
2023-02-16T17:50:08.177Z,96.10
2023-02-16T17:54:10.075Z,96.10
2023-02-16T17:58:12.582Z,96.10
2023-02-16T18:02:14.427Z,96.30
2023-02-16T18:06:18.239Z,96.40
2023-02-16T18:10:34.813Z,96.40
2023-02-16T18:14:36.661Z,96.30
2023-02-16T18:18:39.295Z,96.60
2023-02-16T18:22:41.248Z,96.60
2023-02-16T18:26:43.048Z,96.70
2023-02-16T18:30:47.742Z,96.70
2023-02-16T18:34:49.710Z,96.80
2023-02-16T18:38:51.610Z,96.60
2023-02-16T18:42:53.470Z,96.50
2023-02-16T18:46:55.455Z,96.40
2023-02-16T18:50:57.215Z,96.30
2023-02-16T18:54:59.026Z,96.30
2023-02-16T18:59:00.828Z,96.30
2023-02-16T19:03:03.126Z,96.30
2023-02-16T19:07:04.987Z,96.30
2023-02-16T19:11:06.835Z,96.30
2023-02-16T19:15:09.181Z,96.30
2023-02-16T19:19:11.053Z,96.20
2023-02-16T19:23:12.899Z,96.20
2023-02-16T19:27:14.665Z,96.30
2023-02-16T19:31:22.356Z,96.40
2023-02-16T19:35:24.380Z,96.50
2023-02-16T19:39:26.262Z,96.50
2023-02-16T19:43:28.177Z,96.50
2023-02-16T19:47:30.044Z,96.80
2023-02-16T19:51:31.943Z,96.90
2023-02-16T19:55:33.800Z,96.90
2023-02-16T19:59:35.598Z,96.90
2023-02-16T20:03:37.658Z,96.90
2023-02-16T20:07:39.559Z,96.80
2023-02-16T20:11:41.385Z,97.10
2023-02-16T20:15:43.252Z,96.90
2023-02-16T20:19:45.125Z,96.70
2023-02-16T20:23:48.378Z,96.60
2023-02-16T20:27:50.184Z,96.60
2023-02-16T20:31:55.091Z,96.50
2023-02-16T20:35:57.039Z,96.50
2023-02-16T20:39:59.316Z,96.60
2023-02-16T20:44:02.786Z,96.70
2023-02-16T20:48:05.452Z,96.70
2023-02-16T20:52:09.446Z,96.90
2023-02-16T20:56:23.426Z,96.60
2023-02-16T21:00:26.061Z,96.60
2023-02-16T21:04:27.908Z,96.60
2023-02-16T21:08:29.684Z,96.80
2023-02-16T21:12:31.531Z,96.90
2023-02-16T21:16:33.882Z,96.90
2023-02-16T21:20:36.060Z,96.80
2023-02-16T21:24:40.732Z,96.70
2023-02-16T21:28:42.647Z,96.70
2023-02-16T21:32:44.488Z,97.10
2023-02-16T21:36:46.418Z,96.70
2023-02-16T21:41:06.719Z,96.60
2023-02-16T21:45:14.527Z,96.70
2023-02-16T21:49:18.851Z,97.00
2023-02-16T21:53:20.730Z,97.00
2023-02-16T21:57:24.833Z,96.90
2023-02-16T22:01:29.966Z,96.90
2023-02-16T22:05:33.103Z,97.00
2023-02-16T22:09:34.916Z,97.10
2023-02-16T22:13:37.178Z,97.00
2023-02-16T22:17:38.990Z,97.00
2023-02-16T22:21:42.726Z,96.90
2023-02-16T22:25:44.553Z,96.90
2023-02-16T22:29:46.325Z,96.80
2023-02-16T22:33:48.674Z,96.80
2023-02-16T22:37:50.472Z,96.80
2023-02-16T22:41:52.308Z,96.80
2023-02-16T22:45:54.209Z,96.80
2023-02-16T22:49:56.022Z,96.80
2023-02-16T22:53:59.354Z,96.70
2023-02-16T22:58:01.121Z,96.70
2023-02-16T23:02:02.958Z,96.80
2023-02-16T23:06:15.867Z,97.10
2023-02-16T23:10:17.768Z,97.10
2023-02-16T23:14:20.729Z,97.00
2023-02-16T23:18:24.052Z,97.00
2023-02-16T23:22:25.873Z,96.90
2023-02-16T23:26:30.379Z,97.00
2023-02-16T23:30:32.185Z,97.00
2023-02-16T23:34:33.946Z,97.10
2023-02-16T23:38:35.904Z,97.10
2023-02-16T23:42:37.667Z,97.20
2023-02-16T23:46:39.520Z,97.40
2023-02-16T23:50:41.298Z,97.80
2023-02-16T23:54:43.454Z,97.60
2023-02-16T23:58:45.655Z,97.40
